Time;durP1;ratioP1;P1;durP2;ratioP2;P2;SDS_P1;SDS_P2;PMS_P1;PMS_P2;Temp;Humidity;BMP_temperature;BMP_pressure;BME280_temperature;BME280_humidity;BME280_pressure;Samples;Min_cycle;Max_cycle;Signal;HPM_P1;HPM_P2
2022/04/22 00:00:19;;;;;;;8.07;4.95;;;;;;;12.63;64.21;101115.53;5006304;28;20531;-59
2022/04/22 00:02:44;;;;;;;8.57;4.60;;;;;;;12.58;64.47;101117.50;5004988;28;20049;-58
2022/04/22 00:05:09;;;;;;;9.20;5.10;;;;;;;12.57;64.48;101115.78;5003842;28;20037;-57
2022/04/22 00:07:35;;;;;;;6.53;4.90;;;;;;;12.41;64.71;101109.34;5003389;28;20060;-58
2022/04/22 00:10:00;;;;;;;6.85;4.00;;;;;;;12.46;64.68;101113.53;5004687;28;20072;-58
2022/04/22 00:12:26;;;;;;;9.75;4.53;;;;;;;12.43;64.31;101108.34;5003111;28;20432;-58
2022/04/22 00:14:51;;;;;;;8.43;4.65;;;;;;;12.31;64.93;101114.97;5004314;28;20097;-58
2022/04/22 00:17:16;;;;;;;8.02;4.30;;;;;;;12.38;64.28;101116.44;4987282;28;20071;-58
2022/04/22 00:19:42;;;;;;;9.52;4.72;;;;;;;12.31;64.20;101112.31;5003385;28;20242;-59
2022/04/22 00:22:07;;;;;;;6.13;3.97;;;;;;;12.38;64.36;101112.97;5004905;28;20085;-61
2022/04/22 00:24:33;;;;;;;5.38;3.92;;;;;;;12.31;64.28;101108.84;5006045;28;20084;-59
2022/04/22 00:26:58;;;;;;;10.63;4.90;;;;;;;12.19;64.61;101110.16;5004342;28;20046;-63
2022/04/22 00:29:23;;;;;;;10.38;4.40;;;;;;;12.19;64.29;101100.41;5005410;28;20168;-59
2022/04/22 00:31:49;;;;;;;4.93;3.67;;;;;;;12.36;64.24;101101.59;5005125;28;20104;-60
2022/04/22 00:34:14;;;;;;;8.57;3.90;;;;;;;12.27;64.33;101102.78;5005618;28;20029;-60
2022/04/22 00:36:39;;;;;;;7.68;3.80;;;;;;;12.26;64.51;101106.34;5004599;28;20125;-59
2022/04/22 00:39:05;;;;;;;6.20;4.05;;;;;;;12.13;64.56;101108.56;5006156;28;20496;-59
2022/04/22 00:41:30;;;;;;;8.45;4.18;;;;;;;12.12;64.97;101107.72;5001748;28;20533;-58
2022/04/22 00:43:56;;;;;;;6.38;3.90;;;;;;;12.15;65.01;101106.75;5006000;28;20172;-60
2022/04/22 00:46:21;;;;;;;7.32;4.32;;;;;;;11.98;65.18;101105.53;5005208;28;20428;-60
2022/04/22 00:48:47;;;;;;;8.63;4.25;;;;;;;12.05;65.19;101103.53;5005406;28;20030;-58
2022/04/22 00:51:12;;;;;;;4.82;4.13;;;;;;;12.07;64.88;101101.72;5006353;28;20531;-59
2022/04/22 00:53:41;;;;;;;7.20;4.20;;;;;;;11.94;65.65;101100.41;5005418;28;20041;-59
2022/04/22 00:56:10;;;;;;;6.55;4.25;;;;;;;11.98;65.28;101091.47;5002945;28;20523;-60
2022/04/22 00:58:37;;;;;;;6.53;4.22;;;;;;;12.00;65.38;101095.78;5005558;28;20026;-59
2022/04/22 01:01:03;;;;;;;4.47;3.88;;;;;;;11.97;65.39;101100.31;5005054;28;20424;-58
2022/04/22 01:03:28;;;;;;;8.68;4.53;;;;;;;11.98;65.00;101096.75;5002744;28;20052;-59
2022/04/22 01:11:23;;;;;;;7.10;4.32;;;;;;;11.83;65.77;101083.16;5009077;28;20069;-59
2022/04/22 01:13:48;;;;;;;7.30;4.85;;;;;;;11.79;65.65;101089.47;5009441;28;20065;-58
2022/04/22 01:16:14;;;;;;;6.30;5.15;;;;;;;11.77;65.77;101080.75;5006660;28;20121;-59
2022/04/22 01:18:39;;;;;;;7.43;5.18;;;;;;;11.74;65.93;101081.72;5008597;28;20037;-62
2022/04/22 01:21:05;;;;;;;6.63;4.47;;;;;;;11.74;65.62;101079.06;5009132;28;20022;-58
2022/04/22 01:23:31;;;;;;;5.82;4.70;;;;;;;11.75;65.56;101080.78;5009064;28;20394;-61
2022/04/22 01:25:57;;;;;;;7.03;5.60;;;;;;;11.77;66.01;101078.09;5008194;28;20037;-59
2022/04/22 01:28:23;;;;;;;7.82;4.72;;;;;;;11.71;66.03;101086.25;5007813;28;20014;-58
2022/04/22 01:30:54;;;;;;;9.52;5.40;;;;;;;11.61;66.84;101081.28;5009235;28;20032;-58
2022/04/22 01:33:19;;;;;;;8.38;5.13;;;;;;;11.56;66.67;101075.28;5008110;28;20045;-58
2022/04/22 01:35:44;;;;;;;6.95;5.07;;;;;;;11.49;66.98;101081.69;5009146;28;20014;-58
2022/04/22 01:38:10;;;;;;;7.80;5.28;;;;;;;11.37;67.74;101081.22;5008119;28;20045;-61
2022/04/22 01:40:35;;;;;;;6.53;5.32;;;;;;;11.45;67.57;101085.38;5007385;28;20022;-60
2022/04/22 01:43:00;;;;;;;6.80;4.97;;;;;;;11.27;68.05;101082.44;5008873;28;20030;-60
2022/04/22 01:45:26;;;;;;;9.55;6.38;;;;;;;11.33;67.72;101076.97;5007887;28;20034;-59
2022/04/22 01:47:51;;;;;;;7.55;5.60;;;;;;;11.27;68.26;101073.63;5008722;28;20030;-60
2022/04/22 01:50:17;;;;;;;8.70;5.85;;;;;;;11.09;68.57;101082.13;5009011;28;20119;-60
2022/04/22 01:52:42;;;;;;;8.70;5.80;;;;;;;11.14;68.66;101079.34;5008240;28;20030;-61
2022/04/22 01:55:08;;;;;;;14.05;5.90;;;;;;;11.16;68.32;101073.97;5006955;28;20036;-60
2022/04/22 01:57:33;;;;;;;12.13;5.75;;;;;;;11.12;68.49;101071.47;5007286;28;20034;-61
2022/04/22 02:00:00;;;;;;;11.27;6.28;;;;;;;11.13;68.35;101072.31;5008667;28;20026;-58
2022/04/22 02:02:25;;;;;;;8.85;5.80;;;;;;;11.16;68.46;101066.94;5007881;28;20424;-58
2022/04/22 02:04:50;;;;;;;8.65;5.55;;;;;;;11.16;68.43;101068.72;5007826;28;20030;-59
2022/04/22 02:07:16;;;;;;;9.15;5.20;;;;;;;11.18;68.08;101064.25;5008959;28;20544;-58
2022/04/22 02:09:41;;;;;;;11.07;5.88;;;;;;;11.11;68.66;101060.97;5007566;28;20030;-59
2022/04/22 02:12:07;;;;;;;11.43;5.40;;;;;;;11.10;68.66;101062.75;5007523;28;20114;-59
2022/04/22 02:14:33;;;;;;;9.00;5.63;;;;;;;11.06;68.69;101049.69;5007950;28;20084;-58
2022/04/22 02:16:59;;;;;;;11.27;6.05;;;;;;;10.98;68.80;101052.56;5007527;28;20270;-63
2022/04/22 02:19:25;;;;;;;8.48;5.70;;;;;;;11.01;68.90;101051.63;5006540;28;20121;-59
2022/04/22 02:21:51;;;;;;;10.05;6.20;;;;;;;10.93;69.02;101049.25;5007908;28;20107;-60
2022/04/22 02:24:16;;;;;;;10.55;6.30;;;;;;;10.97;68.87;101051.75;5007792;28;20468;-59
2022/04/22 02:29:26;;;;;;;7.30;5.78;;;;;;;11.00;69.13;101037.59;5006195;28;20547;-59
2022/04/22 02:31:52;;;;;;;12.27;6.70;;;;;;;10.96;69.28;101046.50;5007952;28;20057;-57
2022/04/22 02:34:19;;;;;;;10.48;6.13;;;;;;;10.93;69.38;101041.34;5007447;28;20040;-58
2022/04/22 02:36:45;;;;;;;11.93;6.60;;;;;;;10.85;69.44;101046.84;5005880;28;20038;-58
2022/04/22 02:39:10;;;;;;;10.10;6.80;;;;;;;10.83;69.55;101038.13;5006534;28;20487;-59
2022/04/22 02:47:03;;;;;;;11.00;6.25;;;;;;;10.85;69.50;101031.91;4987401;28;20088;-59
2022/04/22 02:49:29;;;;;;;10.07;6.47;;;;;;;10.72;70.02;101046.38;5000026;28;20117;-59
2022/04/22 02:51:54;;;;;;;11.95;6.80;;;;;;;10.68;70.20;101045.59;5007666;28;20025;-59
2022/04/22 02:54:19;;;;;;;10.90;6.75;;;;;;;10.71;70.35;101039.38;5006866;28;20575;-60
2022/04/22 02:56:45;;;;;;;7.45;6.10;;;;;;;10.81;69.86;101030.25;5004647;28;20041;-61
2022/04/22 02:59:10;;;;;;;12.88;6.78;;;;;;;10.74;70.36;101037.50;5008080;28;20018;-59
2022/04/22 03:01:35;;;;;;;7.63;6.57;;;;;;;10.77;70.23;101039.16;5006655;28;20022;-59
2022/04/22 03:04:01;;;;;;;9.10;6.47;;;;;;;10.79;69.92;101040.00;5007686;28;20036;-59
2022/04/22 03:06:26;;;;;;;9.25;6.30;;;;;;;10.74;70.52;101036.63;5006456;28;20037;-58
2022/04/22 03:08:54;;;;;;;8.10;5.90;;;;;;;10.60;71.40;101024.75;5006707;28;20455;-59
2022/04/22 03:11:21;;;;;;;10.90;6.85;;;;;;;10.33;72.94;101026.44;5006906;28;20041;-60
2022/04/22 03:13:49;;;;;;;11.88;8.07;;;;;;;10.40;72.75;101024.47;5006290;28;20024;-60
2022/04/22 03:16:16;;;;;;;10.35;6.40;;;;;;;10.34;73.33;101018.50;5005654;28;20470;-59
2022/04/22 03:18:41;;;;;;;8.70;5.82;;;;;;;10.32;73.92;101022.06;5007702;28;20026;-58
2022/04/22 03:21:07;;;;;;;12.13;6.10;;;;;;;10.46;73.46;101027.81;5006690;28;20026;-59
2022/04/22 03:23:33;;;;;;;11.27;6.45;;;;;;;10.41;74.10;101020.94;5007036;28;20022;-59
2022/04/22 03:25:58;;;;;;;9.52;6.18;;;;;;;10.36;74.84;101019.28;5005520;28;20112;-59
2022/04/22 03:28:24;;;;;;;14.52;7.05;;;;;;;10.36;74.91;101011.38;5006699;28;20041;-59
2022/04/22 03:30:50;;;;;;;8.32;6.20;;;;;;;10.33;75.03;101018.53;5006677;28;20052;-59
2022/04/22 03:33:17;;;;;;;15.88;7.05;;;;;;;10.21;75.86;101019.75;5006204;28;20018;-60
2022/04/22 03:35:43;;;;;;;8.73;6.30;;;;;;;10.26;75.88;101012.56;5006366;28;20544;-58
2022/04/22 03:38:11;;;;;;;8.20;6.43;;;;;;;10.33;75.77;101014.13;5005215;28;20101;-58
2022/04/22 03:40:36;;;;;;;9.45;6.72;;;;;;;10.36;76.22;101010.53;5004905;28;20022;-59
2022/04/22 03:43:01;;;;;;;11.23;6.50;;;;;;;10.23;76.69;101010.03;4993009;28;20038;-58
2022/04/22 03:45:27;;;;;;;9.85;5.78;;;;;;;10.41;75.94;101010.41;4986376;28;20026;-60
2022/04/22 03:47:52;;;;;;;9.18;5.70;;;;;;;10.55;75.55;101018.78;4994708;28;20468;-59
2022/04/22 03:50:17;;;;;;;11.75;6.55;;;;;;;10.42;76.37;101012.97;5007039;28;20465;-59
2022/04/22 03:52:43;;;;;;;8.80;5.85;;;;;;;10.50;76.12;101004.88;5006613;28;20527;-60
2022/04/22 03:55:08;;;;;;;8.18;5.45;;;;;;;10.41;76.56;101010.41;5004454;28;20519;-61
2022/04/22 04:00:17;;;;;;;9.93;6.22;;;;;;;10.19;77.57;101006.63;4986473;28;20389;-60
2022/04/22 04:02:43;;;;;;;9.65;6.35;;;;;;;10.35;77.36;101009.66;4986550;28;20026;-60
2022/04/22 04:05:08;;;;;;;9.05;6.50;;;;;;;10.24;77.75;101006.50;5001815;28;20489;-60
2022/04/22 04:07:34;;;;;;;11.20;6.93;;;;;;;10.18;78.05;101017.22;4985254;28;20133;-60
2022/04/22 04:18:11;;;;;;;11.27;7.18;;;;;;;10.23;78.07;101010.91;5006737;28;20455;-61
2022/04/22 04:23:20;;;;;;;12.55;7.25;;;;;;;10.17;78.10;101012.88;5006208;28;20061;-62
2022/04/22 04:25:47;;;;;;;11.00;7.72;;;;;;;10.31;77.65;101010.69;5005998;28;20042;-60
2022/04/22 04:28:13;;;;;;;10.05;6.80;;;;;;;10.31;77.63;101005.41;5005188;28;20477;-58
2022/04/22 04:30:39;;;;;;;10.25;7.25;;;;;;;10.25;77.97;101010.84;5004320;28;20022;-58
2022/04/22 04:33:05;;;;;;;14.63;7.68;;;;;;;10.27;77.25;101003.78;5005367;28;20030;-59
2022/04/22 04:35:31;;;;;;;12.80;7.75;;;;;;;10.22;78.06;101011.81;5005733;28;20014;-59
2022/04/22 04:37:57;;;;;;;13.35;8.30;;;;;;;10.21;77.94;101017.13;5004996;28;20365;-60
2022/04/22 04:40:22;;;;;;;14.20;7.95;;;;;;;10.28;77.66;101017.78;5003757;28;20357;-58
2022/04/22 04:42:47;;;;;;;14.77;8.48;;;;;;;10.23;77.66;101010.03;5008778;28;20072;-59
2022/04/22 04:45:13;;;;;;;15.15;8.20;;;;;;;10.13;78.35;101016.47;5008602;28;20024;-59
2022/04/22 04:47:41;;;;;;;15.48;8.07;;;;;;;10.20;77.83;101018.03;5006758;28;20041;-60
2022/04/22 04:50:08;;;;;;;10.75;8.65;;;;;;;10.19;78.47;101024.19;5007578;28;20049;-59
2022/04/22 04:52:34;;;;;;;12.35;8.50;;;;;;;10.27;77.85;101023.97;5009786;28;20041;-59
2022/04/22 04:55:00;;;;;;;12.75;7.50;;;;;;;10.18;78.18;101030.38;5008721;28;20037;-61
2022/04/22 04:57:25;;;;;;;13.30;8.45;;;;;;;10.42;77.49;101028.78;5009657;28;20392;-60
2022/04/22 04:59:51;;;;;;;12.10;8.07;;;;;;;10.25;77.81;101026.66;5009164;28;20484;-61
2022/04/22 05:02:16;;;;;;;10.60;7.50;;;;;;;10.31;77.67;101021.22;5010342;28;20022;-60
2022/04/22 05:04:42;;;;;;;13.10;7.50;;;;;;;10.39;77.50;101015.72;5009690;28;20492;-60
2022/04/22 05:07:07;;;;;;;12.57;8.40;;;;;;;10.37;77.43;101012.25;5009922;28;20048;-59
2022/04/22 05:09:32;;;;;;;14.45;7.75;;;;;;;10.27;77.68;101014.31;5007427;28;20520;-60
2022/04/22 05:11:58;;;;;;;11.50;7.90;;;;;;;10.44;77.29;101015.56;5007925;28;20084;-59
2022/04/22 05:14:25;;;;;;;11.43;7.93;;;;;;;10.60;76.67;101021.28;5007788;28;20022;-60
2022/04/22 05:16:50;;;;;;;10.20;7.45;;;;;;;10.61;76.40;101023.84;5007763;28;20022;-59
2022/04/22 05:19:15;;;;;;;9.23;7.65;;;;;;;10.24;77.84;101017.03;5008841;28;20771;-59
2022/04/22 05:21:41;;;;;;;12.77;7.85;;;;;;;10.36;77.18;101019.28;5007642;28;20603;-59
2022/04/22 05:24:07;;;;;;;10.70;8.05;;;;;;;10.22;77.48;101010.94;5008080;28;20033;-59
2022/04/22 05:26:32;;;;;;;13.13;7.85;;;;;;;10.30;77.46;101014.19;5006056;28;20026;-61
2022/04/22 05:28:58;;;;;;;12.10;7.88;;;;;;;10.55;76.44;101015.25;5008878;28;20498;-60
2022/04/22 05:34:07;;;;;;;15.88;8.35;;;;;;;10.46;77.00;101013.78;5007976;28;20133;-59
2022/04/22 05:36:32;;;;;;;13.48;8.30;;;;;;;10.57;76.43;101018.72;5006832;28;20906;-60
2022/04/22 05:38:57;;;;;;;11.48;8.32;;;;;;;10.57;76.17;101022.22;5008660;28;20032;-59
2022/04/22 05:41:23;;;;;;;13.73;8.07;;;;;;;10.42;76.78;101017.41;5007351;28;20053;-60
2022/04/22 05:43:48;;;;;;;12.88;8.38;;;;;;;10.51;76.93;101027.69;5008617;28;20033;-61
2022/04/22 05:46:13;;;;;;;11.32;7.57;;;;;;;10.68;76.04;101024.50;5008218;28;20065;-58
2022/04/22 05:48:39;;;;;;;12.52;8.18;;;;;;;10.65;76.62;101018.50;5008198;28;20104;-59
2022/04/22 05:51:04;;;;;;;13.10;8.55;;;;;;;10.80;75.74;101017.13;5008464;28;20088;-59
2022/04/22 05:53:30;;;;;;;12.38;8.50;;;;;;;10.72;75.67;101027.94;5006569;28;20030;-64
2022/04/22 05:55:55;;;;;;;10.90;8.68;;;;;;;10.68;76.11;101034.19;5007859;28;20030;-63
2022/04/22 05:58:21;;;;;;;10.27;8.27;;;;;;;10.80;75.97;101027.66;5006884;28;20060;-60
2022/04/22 06:00:47;;;;;;;13.18;9.88;;;;;;;10.71;76.05;101028.81;5005368;28;20014;-60
2022/04/22 06:03:12;;;;;;;13.68;9.20;;;;;;;10.82;75.86;101026.72;5007620;28;20030;-59
2022/04/22 06:05:37;;;;;;;12.60;8.85;;;;;;;10.96;75.63;101035.97;5006953;28;20036;-61
2022/04/22 06:10:51;;;;;;;18.10;9.93;;;;;;;10.98;75.24;101028.84;5006636;28;20413;-61
2022/04/22 06:13:16;;;;;;;15.40;9.57;;;;;;;10.73;75.95;101022.63;4999759;28;20018;-60
2022/04/22 06:15:42;;;;;;;14.48;9.85;;;;;;;11.06;75.20;101018.94;5001260;28;20109;-60
2022/04/22 06:18:07;;;;;;;13.23;9.52;;;;;;;11.05;75.00;101019.81;5007122;28;20349;-60
2022/04/22 06:20:33;;;;;;;17.35;8.93;;;;;;;11.42;73.86;101020.38;5007912;28;20148;-57
2022/04/22 06:22:58;;;;;;;14.25;9.73;;;;;;;11.52;74.15;101020.03;5007175;28;20029;-58
2022/04/22 06:25:24;;;;;;;17.27;10.05;;;;;;;11.65;73.35;101015.19;5005107;28;20465;-56
2022/04/22 06:27:49;;;;;;;14.82;9.65;;;;;;;11.75;72.98;101011.31;5005590;28;20030;-57
2022/04/22 06:30:17;;;;;;;16.02;9.57;;;;;;;11.74;72.97;101006.97;5007376;28;20021;-55
2022/04/22 06:32:44;;;;;;;11.55;9.27;;;;;;;11.78;72.65;101005.94;5006479;28;20091;-54
2022/04/22 06:35:11;;;;;;;14.35;9.80;;;;;;;11.84;72.00;101005.72;5006829;28;20400;-55
2022/04/22 06:37:47;;;;;;;18.40;10.45;;;;;;;11.94;71.97;101000.94;5007239;28;20148;-55
2022/04/22 06:45:47;;;;;;;15.65;10.48;;;;;;;11.92;72.03;101001.91;5006640;28;20502;-58
2022/04/22 06:48:30;;;;;;;18.05;10.88;;;;;;;11.86;72.42;100997.72;4987029;28;20022;-59
2022/04/22 06:50:57;;;;;;;20.75;10.65;;;;;;;11.91;72.00;101000.19;5004374;28;20025;-61
2022/04/22 06:53:23;;;;;;;20.63;11.73;;;;;;;12.00;72.00;100994.56;5006637;28;20109;-60
2022/04/22 06:55:49;;;;;;;19.02;10.95;;;;;;;12.05;71.21;100992.63;5006483;28;20034;-60
2022/04/22 06:58:16;;;;;;;22.52;11.50;;;;;;;12.08;71.23;100989.91;5006572;28;20030;-60
2022/04/22 07:00:42;;;;;;;18.40;11.02;;;;;;;12.10;71.16;100993.31;5005575;28;20515;-61
2022/04/22 07:03:08;;;;;;;19.88;11.68;;;;;;;12.35;70.27;100991.53;5005708;28;20129;-59
2022/04/22 07:05:36;;;;;;;24.50;13.70;;;;;;;12.27;70.72;100991.81;5006356;28;20440;-58
2022/04/22 07:08:02;;;;;;;20.70;11.55;;;;;;;12.47;70.02;100988.41;5006703;28;20046;-59
2022/04/22 07:10:29;;;;;;;28.10;14.93;;;;;;;12.19;70.25;100989.47;5006894;28;20404;-59
2022/04/22 07:12:56;;;;;;;25.80;12.57;;;;;;;12.23;70.31;100990.22;5005391;28;20041;-59
2022/04/22 07:15:21;;;;;;;23.77;12.02;;;;;;;12.45;69.96;101002.59;5006131;28;20018;-60
2022/04/22 07:17:47;;;;;;;15.20;11.60;;;;;;;12.64;69.75;101000.94;5005486;28;20468;-64
2022/04/22 07:20:13;;;;;;;18.25;11.07;;;;;;;12.37;70.26;100993.19;5006608;28;20054;-60
2022/04/22 07:22:39;;;;;;;17.83;12.05;;;;;;;12.58;69.81;100998.53;4988896;28;20026;-61
2022/04/22 07:25:06;;;;;;;17.92;11.80;;;;;;;12.61;69.00;100990.50;5005393;28;20461;-60
2022/04/22 07:27:33;;;;;;;16.60;10.75;;;;;;;12.72;69.16;100994.47;5006594;28;20038;-61
2022/04/22 07:29:59;;;;;;;15.70;10.93;;;;;;;12.74;69.18;100990.00;5004579;28;20490;-61
2022/04/22 07:32:25;;;;;;;20.02;12.43;;;;;;;12.70;69.28;100993.69;5005880;28;20117;-60
2022/04/22 07:34:51;;;;;;;18.00;11.35;;;;;;;12.43;69.35;100992.06;5005274;28;20103;-64
2022/04/22 07:37:17;;;;;;;22.75;12.38;;;;;;;12.35;69.29;100996.81;5006124;28;20075;-61
2022/04/22 07:39:43;;;;;;;20.60;12.55;;;;;;;12.72;68.51;100991.84;4998711;28;20045;-62
2022/04/22 07:42:14;;;;;;;23.92;12.93;;;;;;;12.41;69.55;100991.28;5004959;28;20021;-61
2022/04/22 07:47:24;;;;;;;17.80;11.77;;;;;;;12.78;68.62;100983.66;5005356;28;20044;-61
2022/04/22 07:49:51;;;;;;;21.80;11.63;;;;;;;12.79;68.01;100988.00;5004814;28;20046;-60
2022/04/22 07:52:16;;;;;;;22.05;11.50;;;;;;;12.77;67.85;100985.44;5006290;28;20030;-58
2022/04/22 07:54:41;;;;;;;17.35;10.80;;;;;;;13.02;67.78;100984.44;5004914;28;20028;-59
2022/04/22 07:57:07;;;;;;;20.17;12.07;;;;;;;13.34;67.42;100978.66;5005501;28;20029;-58
2022/04/22 07:59:33;;;;;;;16.90;10.95;;;;;;;13.36;66.18;100982.13;5003879;28;20045;-64
2022/04/22 08:02:01;;;;;;;16.65;10.30;;;;;;;13.42;66.16;100983.63;5002519;28;20037;-57
2022/04/22 08:04:26;;;;;;;18.08;11.25;;;;;;;13.64;64.27;100980.09;5003679;28;20059;-58
2022/04/22 08:06:52;;;;;;;15.15;9.75;;;;;;;13.61;64.49;100980.22;5005262;28;20018;-62
2022/04/22 08:09:17;;;;;;;19.63;10.20;;;;;;;13.60;64.73;100984.66;5003158;28;20144;-57
2022/04/22 08:11:43;;;;;;;21.38;11.23;;;;;;;13.31;66.11;100973.53;5004799;28;20407;-58
2022/04/22 08:14:12;;;;;;;17.75;10.63;;;;;;;13.58;65.74;100985.66;5005518;28;20034;-59
2022/04/22 08:16:38;;;;;;;16.25;10.43;;;;;;;13.64;65.24;100980.09;5006810;28;20040;-58
2022/04/22 08:19:03;;;;;;;17.52;11.05;;;;;;;13.70;65.28;100982.44;5010583;28;20029;-58
2022/04/22 08:21:33;;;;;;;18.08;10.75;;;;;;;13.88;64.50;100975.44;5010262;28;20499;-58
2022/04/22 08:23:59;;;;;;;15.70;10.60;;;;;;;13.43;65.44;100973.91;5010728;28;20022;-57
2022/04/22 08:26:24;;;;;;;23.40;11.02;;;;;;;13.64;65.41;100974.78;5008271;28;20473;-57
2022/04/22 08:28:49;;;;;;;13.50;9.38;;;;;;;13.74;64.38;100967.28;5009450;28;20032;-57
2022/04/22 08:31:16;;;;;;;17.45;10.55;;;;;;;13.89;64.65;100963.09;5009595;28;20064;-59
2022/04/22 08:33:45;;;;;;;14.95;9.60;;;;;;;14.24;63.43;100962.38;5010087;28;20026;-57
2022/04/22 08:36:11;;;;;;;17.92;11.02;;;;;;;13.82;63.74;100951.06;5009434;28;20033;-59
2022/04/22 08:38:36;;;;;;;16.38;10.75;;;;;;;13.74;63.78;100957.56;5009191;28;20029;-57
2022/04/22 08:41:02;;;;;;;15.57;10.45;;;;;;;14.00;63.68;100954.66;5009378;28;20107;-58
2022/04/22 08:43:29;;;;;;;13.80;9.68;;;;;;;14.10;63.52;100949.75;5007732;28;20488;-57
2022/04/22 08:45:54;;;;;;;17.73;10.13;;;;;;;14.18;62.94;100952.06;5008415;28;20034;-55
2022/04/22 08:51:11;;;;;;;18.48;11.02;;;;;;;14.46;62.11;100951.59;5000651;28;20071;-56
2022/04/22 08:53:37;;;;;;;13.35;9.45;;;;;;;14.65;62.04;100945.38;5007074;28;20105;-55
2022/04/22 08:56:02;;;;;;;17.17;9.48;;;;;;;14.69;60.34;100941.63;5007530;28;20029;-58
2022/04/22 08:58:29;;;;;;;14.10;9.25;;;;;;;14.81;60.79;100940.19;5008401;28;20022;-55
2022/04/22 09:00:58;;;;;;;16.55;8.80;;;;;;;14.65;60.56;100925.03;5007973;28;20088;-58
2022/04/22 09:03:27;;;;;;;13.98;9.52;;;;;;;14.67;60.77;100930.25;5009243;28;20052;-56
2022/04/22 09:05:55;;;;;;;13.10;9.05;;;;;;;14.50;60.59;100933.72;5006577;28;20519;-57
2022/04/22 09:08:21;;;;;;;17.40;9.57;;;;;;;14.80;60.94;100924.34;5008405;28;20496;-59
2022/04/22 09:10:52;;;;;;;13.57;8.15;;;;;;;15.16;60.03;100913.66;5007362;28;20399;-57
2022/04/22 09:13:29;;;;;;;18.95;10.05;;;;;;;15.20;59.81;100908.19;5008638;28;20392;-60
2022/04/22 09:15:55;;;;;;;13.77;8.77;;;;;;;15.12;60.00;100916.56;5007686;28;20030;-53
2022/04/22 09:18:23;;;;;;;16.35;9.25;;;;;;;15.41;59.54;100908.84;5008671;28;20036;-54
2022/04/22 09:20:49;;;;;;;15.93;9.00;;;;;;;15.20;59.67;100910.84;5008936;28;20018;-58
2022/04/22 09:23:31;;;;;;;13.70;7.95;;;;;;;15.50;58.94;100905.69;5008932;28;20029;-58
2022/04/22 09:25:56;;;;;;;13.48;8.20;;;;;;;15.43;58.77;100895.47;5007588;28;20080;-54
2022/04/22 09:28:22;;;;;;;15.07;8.57;;;;;;;15.84;57.91;100897.69;5008681;28;20034;-55
2022/04/22 09:31:01;;;;;;;14.77;8.82;;;;;;;15.32;58.34;100894.25;5009036;28;20062;-56
2022/04/22 09:33:47;;;;;;;13.75;8.45;;;;;;;15.64;58.00;100894.34;5008246;28;20400;-60
2022/04/22 09:45:03;;;;;;;10.30;7.43;;;;;;;16.10;55.84;100875.97;5007802;28;20092;-62
2022/04/22 09:47:32;;;;;;;;;;;;;;;15.83;56.33;100880.03;5006042;28;20034;-61
2022/04/22 09:49:58;;;;;;;14.15;7.40;;;;;;;16.00;56.30;100886.22;4999334;28;20367;-62
2022/04/22 09:52:25;;;;;;;10.98;7.50;;;;;;;15.85;56.29;100883.47;4998581;28;20396;-61
2022/04/22 09:54:59;;;;;;;15.02;6.90;;;;;;;16.38;54.52;100871.69;5004166;28;20026;-65
2022/04/22 09:57:25;;;;;;;16.42;7.88;;;;;;;15.65;56.18;100872.13;5006217;28;20073;-65
2022/04/22 09:59:52;;;;;;;14.85;6.95;;;;;;;15.69;55.52;100866.66;5007411;28;20575;-64
2022/04/22 10:02:21;;;;;;;10.73;7.03;;;;;;;15.70;55.81;100865.72;5002349;28;20028;-62
2022/04/22 10:04:47;;;;;;;12.25;6.97;;;;;;;16.12;56.15;100853.66;5005322;28;20134;-61
2022/04/22 10:07:13;;;;;;;12.18;7.47;;;;;;;16.06;55.94;100863.75;5005598;28;20109;-61
2022/04/22 10:09:39;;;;;;;12.80;7.50;;;;;;;16.15;55.08;100860.59;5004462;28;20033;-61
2022/04/22 10:12:08;;;;;;;13.40;7.30;;;;;;;15.97;55.88;100859.81;5005705;28;20026;-62
2022/04/22 10:14:37;;;;;;;9.05;6.88;;;;;;;16.12;55.17;100869.59;5006196;28;20044;-63
2022/04/22 10:17:04;;;;;;;20.98;6.80;;;;;;;16.48;54.03;100866.69;5007835;28;20049;-63
2022/04/22 10:19:31;;;;;;;9.73;6.88;;;;;;;16.76;53.90;100849.94;5006414;28;20041;-63
2022/04/22 10:21:57;;;;;;;10.00;6.68;;;;;;;16.44;54.73;100854.53;5006067;28;20030;-60
2022/04/22 10:24:23;;;;;;;12.07;7.00;;;;;;;16.56;53.95;100859.13;5005927;28;20392;-60
2022/04/22 10:26:49;;;;;;;15.38;6.85;;;;;;;16.76;53.74;100847.28;5005980;28;20037;-60
2022/04/22 10:29:14;;;;;;;7.70;6.07;;;;;;;17.24;53.88;100858.66;5000537;28;20631;-63
2022/04/22 10:31:40;;;;;;;10.00;6.72;;;;;;;17.43;52.86;100851.25;4996141;28;20676;-61
2022/04/22 10:34:06;;;;;;;9.57;6.82;;;;;;;17.57;52.23;100857.50;4995023;28;20072;-62
2022/04/22 10:36:32;;;;;;;7.30;5.78;;;;;;;17.29;51.56;100859.25;4997840;28;20045;-63
2022/04/22 10:38:58;;;;;;;9.18;6.55;;;;;;;17.37;53.09;100846.31;4996997;28;20026;-60
2022/04/22 10:41:23;;;;;;;9.98;6.22;;;;;;;17.47;51.64;100845.72;4999757;28;20096;-60
2022/04/22 10:49:43;;;;;;;10.32;5.70;;;;;;;17.71;52.25;100847.78;5006703;28;19924;-62
2022/04/22 10:52:11;;;;;;;8.05;5.30;;;;;;;17.64;51.04;100837.50;5007893;28;20817;-61
2022/04/22 10:54:52;;;;;;;6.30;4.70;;;;;;;17.81;48.57;100848.91;5006132;28;20037;-61
2022/04/22 10:57:23;;;;;;;16.70;5.20;;;;;;;18.01;48.87;100830.75;5006415;28;20064;-61
2022/04/22 11:00:07;;;;;;;10.07;4.60;;;;;;;18.29;47.86;100831.63;5006930;28;20026;-61
2022/04/22 11:02:34;;;;;;;6.63;4.78;;;;;;;18.55;49.10;100831.69;5006350;28;20029;-60
2022/04/22 11:05:20;;;;;;;8.52;4.53;;;;;;;19.10;46.10;100817.28;5007769;28;20135;-61
2022/04/22 11:07:58;;;;;;;7.95;5.10;;;;;;;19.19;47.64;100824.66;5006866;28;20512;-60
2022/04/22 11:10:26;;;;;;;8.98;5.93;;;;;;;19.47;48.36;100821.84;5001857;28;20022;-62
2022/04/22 11:12:54;;;;;;;11.30;5.67;;;;;;;19.86;46.40;100830.56;4997141;28;20017;-61
2022/04/22 11:15:46;;;;;;;8.77;5.40;;;;;;;18.80;47.87;100824.66;4997035;28;20074;-59
2022/04/22 11:18:13;;;;;;;10.38;6.40;;;;;;;18.88;48.82;100814.31;5005358;28;20026;-60
2022/04/22 11:20:42;;;;;;;12.35;6.40;;;;;;;18.56;48.00;100828.03;5005144;28;20121;-61
2022/04/22 11:23:11;;;;;;;8.75;6.00;;;;;;;18.18;49.89;100822.53;5006384;28;20016;-61
2022/04/22 11:25:38;;;;;;;8.30;5.65;;;;;;;18.91;47.24;100819.41;5004152;28;20104;-63
2022/04/22 11:28:04;;;;;;;9.48;5.75;;;;;;;18.54;48.11;100811.28;5006502;28;20053;-60
2022/04/22 11:30:32;;;;;;;14.63;6.57;;;;;;;17.99;49.12;100814.00;5003889;28;20022;-62
2022/04/22 11:33:13;;;;;;;10.90;5.45;;;;;;;18.40;49.76;100815.75;5005113;28;20594;-61
2022/04/22 11:35:39;;;;;;;7.32;5.93;;;;;;;18.16;48.98;100812.94;5005930;28;20527;-63
2022/04/22 11:38:06;;;;;;;5.93;5.18;;;;;;;18.11;48.84;100807.03;5005897;28;20026;-63
2022/04/22 11:40:37;;;;;;;8.13;5.78;;;;;;;17.91;49.80;100809.19;5004188;28;20056;-60
2022/04/22 11:43:10;;;;;;;13.80;5.90;;;;;;;17.54;49.81;100799.09;5005887;28;20101;-61
2022/04/22 11:45:37;;;;;;;9.63;5.93;;;;;;;17.70;50.44;100804.28;5004090;28;20044;-62
2022/04/22 11:48:12;;;;;;;10.07;5.22;;;;;;;18.13;50.20;100799.78;5005802;28;20022;-63
2022/04/22 11:50:42;;;;;;;10.30;5.70;;;;;;;18.54;49.09;100793.47;5004150;28;20041;-64
2022/04/22 11:53:14;;;;;;;9.65;5.38;;;;;;;18.26;48.19;100795.34;5005852;28;20322;-64
2022/04/22 11:55:42;;;;;;;8.55;5.78;;;;;;;17.78;48.92;100810.00;5005163;28;20030;-64
2022/04/22 11:58:11;;;;;;;12.88;5.90;;;;;;;17.48;49.60;100810.13;5005697;28;20022;-62
2022/04/22 12:06:13;;;;;;;12.85;5.15;;;;;;;18.51;48.87;100800.84;5003202;28;20478;-63
2022/04/22 12:09:01;;;;;;;7.72;5.40;;;;;;;18.62;48.18;100798.28;5005396;28;20041;-63
2022/04/22 12:11:27;;;;;;;8.18;5.35;;;;;;;18.64;46.34;100793.69;5005529;28;20420;-64
2022/04/22 12:13:53;;;;;;;9.15;4.90;;;;;;;19.06;46.25;100789.94;5005762;28;20020;-64
2022/04/22 12:16:22;;;;;;;8.32;4.72;;;;;;;19.36;45.49;100783.41;5006000;28;20384;-63
2022/04/22 12:18:48;;;;;;;;;;;;;;;19.27;45.35;100789.41;5006314;28;20061;-64
2022/04/22 12:21:14;;;;;;;10.07;4.70;;;;;;;19.01;44.58;100787.59;5004147;28;19913;-61